sensor_id;sensor_type;location;lat;lon;timestamp;temperature;humidity
28677;DHT22;15858;48.338;11.078;2023-03-19T00:02:05;8.60;99.90
28677;DHT22;15858;48.338;11.078;2023-03-19T00:04:44;8.60;99.90
28677;DHT22;15858;48.338;11.078;2023-03-19T00:07:11;8.50;99.90
28677;DHT22;15858;48.338;11.078;2023-03-19T00:09:37;8.60;99.90
28677;DHT22;15858;48.338;11.078;2023-03-19T00:12:04;8.50;99.90
28677;DHT22;15858;48.338;11.078;2023-03-19T00:14:31;8.50;99.90
28677;DHT22;15858;48.338;11.078;2023-03-19T00:16:58;8.50;99.90
28677;DHT22;15858;48.338;11.078;2023-03-19T00:19:24;8.50;99.90
28677;DHT22;15858;48.338;11.078;2023-03-19T00:21:51;8.50;99.90
28677;DHT22;15858;48.338;11.078;2023-03-19T00:24:17;8.50;99.90
28677;DHT22;15858;48.338;11.078;2023-03-19T00:26:44;8.50;99.90
28677;DHT22;15858;48.338;11.078;2023-03-19T00:29:11;8.40;99.90
28677;DHT22;15858;48.338;11.078;2023-03-19T00:31:38;8.40;99.90
28677;DHT22;15858;48.338;11.078;2023-03-19T00:34:05;8.40;99.90
28677;DHT22;15858;48.338;11.078;2023-03-19T00:36:31;8.50;99.90
28677;DHT22;15858;48.338;11.078;2023-03-19T00:38:58;8.40;99.90
28677;DHT22;15858;48.338;11.078;2023-03-19T00:41:25;8.40;99.90
28677;DHT22;15858;48.338;11.078;2023-03-19T00:43:53;8.40;99.90
28677;DHT22;15858;48.338;11.078;2023-03-19T00:46:20;8.30;99.90
28677;DHT22;15858;48.338;11.078;2023-03-19T00:48:47;8.40;99.90
28677;DHT22;15858;48.338;11.078;2023-03-19T00:51:14;8.40;99.90
28677;DHT22;15858;48.338;11.078;2023-03-19T00:53:42;8.30;99.90
28677;DHT22;15858;48.338;11.078;2023-03-19T00:56:11;8.30;99.90
28677;DHT22;15858;48.338;11.078;2023-03-19T00:58:38;8.30;99.90
28677;DHT22;15858;48.338;11.078;2023-03-19T01:01:06;8.20;99.90
28677;DHT22;15858;48.338;11.078;2023-03-19T01:03:34;8.20;99.90
28677;DHT22;15858;48.338;11.078;2023-03-19T01:06:00;8.10;99.90
28677;DHT22;15858;48.338;11.078;2023-03-19T01:08:27;8.20;99.90
28677;DHT22;15858;48.338;11.078;2023-03-19T01:10:54;8.20;99.90
28677;DHT22;15858;48.338;11.078;2023-03-19T01:13:20;8.20;99.90
28677;DHT22;15858;48.338;11.078;2023-03-19T01:15:51;8.20;99.90
28677;DHT22;15858;48.338;11.078;2023-03-19T01:18:18;8.20;99.90
28677;DHT22;15858;48.338;11.078;2023-03-19T01:20:44;8.30;99.90
28677;DHT22;15858;48.338;11.078;2023-03-19T01:23:11;8.20;99.90
28677;DHT22;15858;48.338;11.078;2023-03-19T01:25:38;8.20;99.90
28677;DHT22;15858;48.338;11.078;2023-03-19T01:28:05;8.20;99.90
28677;DHT22;15858;48.338;11.078;2023-03-19T01:30:31;8.20;99.90
28677;DHT22;15858;48.338;11.078;2023-03-19T01:32:58;8.20;99.90
28677;DHT22;15858;48.338;11.078;2023-03-19T01:35:25;8.20;99.90
28677;DHT22;15858;48.338;11.078;2023-03-19T01:37:51;8.20;99.90
28677;DHT22;15858;48.338;11.078;2023-03-19T01:40:18;8.10;99.90
28677;DHT22;15858;48.338;11.078;2023-03-19T01:45:36;8.10;99.90
28677;DHT22;15858;48.338;11.078;2023-03-19T01:48:03;8.00;99.90
28677;DHT22;15858;48.338;11.078;2023-03-19T01:53:02;8.00;99.90
28677;DHT22;15858;48.338;11.078;2023-03-19T01:55:30;7.90;99.90
28677;DHT22;15858;48.338;11.078;2023-03-19T01:57:56;7.90;99.90
28677;DHT22;15858;48.338;11.078;2023-03-19T02:00:23;7.80;99.90
28677;DHT22;15858;48.338;11.078;2023-03-19T02:02:52;7.80;99.90
28677;DHT22;15858;48.338;11.078;2023-03-19T02:05:21;7.90;99.90
28677;DHT22;15858;48.338;11.078;2023-03-19T02:07:48;7.80;99.90
28677;DHT22;15858;48.338;11.078;2023-03-19T02:10:15;7.80;99.90
28677;DHT22;15858;48.338;11.078;2023-03-19T02:12:42;7.90;99.90
28677;DHT22;15858;48.338;11.078;2023-03-19T02:15:10;7.80;99.90
28677;DHT22;15858;48.338;11.078;2023-03-19T02:17:39;7.80;99.90
28677;DHT22;15858;48.338;11.078;2023-03-19T02:23:01;7.70;99.90
28677;DHT22;15858;48.338;11.078;2023-03-19T02:28:14;7.60;99.90
28677;DHT22;15858;48.338;11.078;2023-03-19T02:30:43;7.60;99.90
28677;DHT22;15858;48.338;11.078;2023-03-19T02:33:14;7.60;99.90
28677;DHT22;15858;48.338;11.078;2023-03-19T02:35:41;7.60;99.90
28677;DHT22;15858;48.338;11.078;2023-03-19T02:38:09;7.60;99.90
28677;DHT22;15858;48.338;11.078;2023-03-19T02:43:14;7.60;99.90
28677;DHT22;15858;48.338;11.078;2023-03-19T02:45:41;7.60;99.90
28677;DHT22;15858;48.338;11.078;2023-03-19T02:48:07;7.70;99.90
28677;DHT22;15858;48.338;11.078;2023-03-19T02:50:34;7.60;99.90
28677;DHT22;15858;48.338;11.078;2023-03-19T02:53:01;7.60;99.90
28677;DHT22;15858;48.338;11.078;2023-03-19T02:55:28;7.60;99.90
28677;DHT22;15858;48.338;11.078;2023-03-19T02:57:54;7.60;99.90
28677;DHT22;15858;48.338;11.078;2023-03-19T03:00:21;7.70;99.90
28677;DHT22;15858;48.338;11.078;2023-03-19T03:02:48;7.70;99.90
28677;DHT22;15858;48.338;11.078;2023-03-19T03:05:14;7.70;99.90
28677;DHT22;15858;48.338;11.078;2023-03-19T03:07:41;7.60;99.90
28677;DHT22;15858;48.338;11.078;2023-03-19T03:10:08;7.60;99.90
28677;DHT22;15858;48.338;11.078;2023-03-19T03:12:35;7.50;99.90
28677;DHT22;15858;48.338;11.078;2023-03-19T03:15:02;7.60;99.90
28677;DHT22;15858;48.338;11.078;2023-03-19T03:17:29;7.60;99.90
28677;DHT22;15858;48.338;11.078;2023-03-19T03:19:55;7.70;99.90
28677;DHT22;15858;48.338;11.078;2023-03-19T03:22:22;7.60;99.90
28677;DHT22;15858;48.338;11.078;2023-03-19T03:24:48;7.60;99.90
28677;DHT22;15858;48.338;11.078;2023-03-19T03:27:15;7.40;99.90
28677;DHT22;15858;48.338;11.078;2023-03-19T03:29:42;7.40;99.90
28677;DHT22;15858;48.338;11.078;2023-03-19T03:32:08;7.50;99.90
28677;DHT22;15858;48.338;11.078;2023-03-19T03:34:35;7.50;99.90
28677;DHT22;15858;48.338;11.078;2023-03-19T03:37:01;7.60;99.90
28677;DHT22;15858;48.338;11.078;2023-03-19T03:39:28;7.50;99.90
28677;DHT22;15858;48.338;11.078;2023-03-19T03:41:55;7.50;99.90
28677;DHT22;15858;48.338;11.078;2023-03-19T03:44:21;7.50;99.90
28677;DHT22;15858;48.338;11.078;2023-03-19T03:46:48;7.60;99.90
28677;DHT22;15858;48.338;11.078;2023-03-19T03:49:14;7.60;99.90
28677;DHT22;15858;48.338;11.078;2023-03-19T03:51:41;7.60;99.90
28677;DHT22;15858;48.338;11.078;2023-03-19T03:54:08;7.60;99.90
28677;DHT22;15858;48.338;11.078;2023-03-19T03:56:34;7.60;99.90
28677;DHT22;15858;48.338;11.078;2023-03-19T03:59:01;7.60;99.90
28677;DHT22;15858;48.338;11.078;2023-03-19T04:01:28;7.60;99.90
28677;DHT22;15858;48.338;11.078;2023-03-19T04:03:55;7.70;99.90
28677;DHT22;15858;48.338;11.078;2023-03-19T04:06:22;7.70;99.90
28677;DHT22;15858;48.338;11.078;2023-03-19T04:08:50;7.70;99.90
28677;DHT22;15858;48.338;11.078;2023-03-19T04:11:16;7.70;99.90
28677;DHT22;15858;48.338;11.078;2023-03-19T04:13:43;7.70;99.90
28677;DHT22;15858;48.338;11.078;2023-03-19T04:16:10;7.60;99.90
28677;DHT22;15858;48.338;11.078;2023-03-19T04:18:37;7.60;99.90
28677;DHT22;15858;48.338;11.078;2023-03-19T04:21:04;7.60;99.90
28677;DHT22;15858;48.338;11.078;2023-03-19T04:23:31;7.70;99.90
28677;DHT22;15858;48.338;11.078;2023-03-19T04:25:59;7.70;99.90
28677;DHT22;15858;48.338;11.078;2023-03-19T04:28:27;7.70;99.90
28677;DHT22;15858;48.338;11.078;2023-03-19T04:31:04;7.80;99.90
28677;DHT22;15858;48.338;11.078;2023-03-19T04:33:32;7.80;99.90
28677;DHT22;15858;48.338;11.078;2023-03-19T04:35:59;7.80;99.90
28677;DHT22;15858;48.338;11.078;2023-03-19T04:38:26;7.80;99.90
28677;DHT22;15858;48.338;11.078;2023-03-19T04:40:53;7.80;99.90
28677;DHT22;15858;48.338;11.078;2023-03-19T04:43:24;7.80;99.90
28677;DHT22;15858;48.338;11.078;2023-03-19T04:45:50;7.80;99.90
28677;DHT22;15858;48.338;11.078;2023-03-19T04:48:17;7.90;99.90
28677;DHT22;15858;48.338;11.078;2023-03-19T04:50:44;7.80;99.90
28677;DHT22;15858;48.338;11.078;2023-03-19T04:53:11;7.90;99.90
28677;DHT22;15858;48.338;11.078;2023-03-19T04:55:38;7.80;99.90
28677;DHT22;15858;48.338;11.078;2023-03-19T04:58:05;7.90;99.90
28677;DHT22;15858;48.338;11.078;2023-03-19T05:00:31;7.90;99.90
28677;DHT22;15858;48.338;11.078;2023-03-19T05:02:58;7.90;99.90
28677;DHT22;15858;48.338;11.078;2023-03-19T05:05:25;7.80;99.90
28677;DHT22;15858;48.338;11.078;2023-03-19T05:07:52;7.90;99.90
28677;DHT22;15858;48.338;11.078;2023-03-19T05:10:18;7.90;99.90
28677;DHT22;15858;48.338;11.078;2023-03-19T05:12:45;7.90;99.90
28677;DHT22;15858;48.338;11.078;2023-03-19T05:15:13;7.90;99.90
28677;DHT22;15858;48.338;11.078;2023-03-19T05:17:40;7.90;99.90
28677;DHT22;15858;48.338;11.078;2023-03-19T05:20:07;7.80;99.90
28677;DHT22;15858;48.338;11.078;2023-03-19T05:22:34;8.00;99.90
28677;DHT22;15858;48.338;11.078;2023-03-19T05:25:01;8.20;99.90
28677;DHT22;15858;48.338;11.078;2023-03-19T05:27:27;8.10;99.90
28677;DHT22;15858;48.338;11.078;2023-03-19T05:29:54;8.20;99.90
28677;DHT22;15858;48.338;11.078;2023-03-19T05:32:20;8.20;99.90
28677;DHT22;15858;48.338;11.078;2023-03-19T05:34:47;8.20;99.90
28677;DHT22;15858;48.338;11.078;2023-03-19T05:37:14;8.20;99.90
28677;DHT22;15858;48.338;11.078;2023-03-19T05:39:40;8.20;99.90
28677;DHT22;15858;48.338;11.078;2023-03-19T05:42:07;8.20;99.90
28677;DHT22;15858;48.338;11.078;2023-03-19T05:44:34;8.20;99.90
28677;DHT22;15858;48.338;11.078;2023-03-19T05:47:00;8.30;99.90
28677;DHT22;15858;48.338;11.078;2023-03-19T05:49:27;8.20;99.90
28677;DHT22;15858;48.338;11.078;2023-03-19T05:51:54;8.20;99.90
28677;DHT22;15858;48.338;11.078;2023-03-19T05:54:20;8.20;99.90
28677;DHT22;15858;48.338;11.078;2023-03-19T05:56:47;8.20;99.90
28677;DHT22;15858;48.338;11.078;2023-03-19T05:59:13;8.30;99.90
28677;DHT22;15858;48.338;11.078;2023-03-19T06:01:40;8.30;99.90
28677;DHT22;15858;48.338;11.078;2023-03-19T06:04:07;8.30;99.90
28677;DHT22;15858;48.338;11.078;2023-03-19T06:06:33;8.30;99.90
28677;DHT22;15858;48.338;11.078;2023-03-19T06:09:00;8.30;99.90
28677;DHT22;15858;48.338;11.078;2023-03-19T06:11:26;8.30;99.90
28677;DHT22;15858;48.338;11.078;2023-03-19T06:13:53;8.30;99.90
28677;DHT22;15858;48.338;11.078;2023-03-19T06:16:20;8.40;99.90
28677;DHT22;15858;48.338;11.078;2023-03-19T06:18:46;8.40;99.90
28677;DHT22;15858;48.338;11.078;2023-03-19T06:21:13;8.40;99.90
28677;DHT22;15858;48.338;11.078;2023-03-19T06:23:39;8.40;99.90
28677;DHT22;15858;48.338;11.078;2023-03-19T06:26:06;8.40;99.90
28677;DHT22;15858;48.338;11.078;2023-03-19T06:28:33;8.40;99.90
28677;DHT22;15858;48.338;11.078;2023-03-19T06:30:59;8.50;99.90
28677;DHT22;15858;48.338;11.078;2023-03-19T06:33:26;8.50;99.90
28677;DHT22;15858;48.338;11.078;2023-03-19T06:35:53;8.50;99.90
28677;DHT22;15858;48.338;11.078;2023-03-19T06:38:19;8.50;99.90
28677;DHT22;15858;48.338;11.078;2023-03-19T06:40:46;8.50;99.90
28677;DHT22;15858;48.338;11.078;2023-03-19T06:43:12;8.50;99.90
28677;DHT22;15858;48.338;11.078;2023-03-19T06:45:39;8.60;99.90
28677;DHT22;15858;48.338;11.078;2023-03-19T06:48:06;8.60;99.90
28677;DHT22;15858;48.338;11.078;2023-03-19T06:50:32;8.70;99.90
28677;DHT22;15858;48.338;11.078;2023-03-19T06:52:59;8.70;99.90
28677;DHT22;15858;48.338;11.078;2023-03-19T06:55:26;8.70;99.90
28677;DHT22;15858;48.338;11.078;2023-03-19T06:57:53;8.80;99.90
28677;DHT22;15858;48.338;11.078;2023-03-19T07:00:19;8.90;99.90
28677;DHT22;15858;48.338;11.078;2023-03-19T07:02:46;9.00;99.90
28677;DHT22;15858;48.338;11.078;2023-03-19T07:05:13;9.00;99.90
28677;DHT22;15858;48.338;11.078;2023-03-19T07:07:39;9.10;99.90
28677;DHT22;15858;48.338;11.078;2023-03-19T07:10:06;9.20;99.90
28677;DHT22;15858;48.338;11.078;2023-03-19T07:12:33;9.20;99.90
28677;DHT22;15858;48.338;11.078;2023-03-19T07:15:00;9.20;99.90
28677;DHT22;15858;48.338;11.078;2023-03-19T07:17:27;9.20;99.90
28677;DHT22;15858;48.338;11.078;2023-03-19T07:19:53;9.10;99.90
28677;DHT22;15858;48.338;11.078;2023-03-19T07:22:20;9.20;99.90
28677;DHT22;15858;48.338;11.078;2023-03-19T07:24:47;9.20;99.90
28677;DHT22;15858;48.338;11.078;2023-03-19T07:27:13;9.10;99.90
28677;DHT22;15858;48.338;11.078;2023-03-19T07:29:40;9.10;99.90
28677;DHT22;15858;48.338;11.078;2023-03-19T07:32:08;9.10;99.90
28677;DHT22;15858;48.338;11.078;2023-03-19T07:34:35;9.10;99.90
28677;DHT22;15858;48.338;11.078;2023-03-19T07:37:02;9.10;99.90
28677;DHT22;15858;48.338;11.078;2023-03-19T07:39:28;9.00;99.90
28677;DHT22;15858;48.338;11.078;2023-03-19T07:41:55;9.00;99.90
28677;DHT22;15858;48.338;11.078;2023-03-19T07:44:21;9.00;99.90
28677;DHT22;15858;48.338;11.078;2023-03-19T07:46:48;9.00;99.90
28677;DHT22;15858;48.338;11.078;2023-03-19T07:49:15;9.00;99.90
28677;DHT22;15858;48.338;11.078;2023-03-19T07:51:41;9.00;99.90
28677;DHT22;15858;48.338;11.078;2023-03-19T07:54:08;8.90;99.90
28677;DHT22;15858;48.338;11.078;2023-03-19T07:56:34;8.90;99.90
28677;DHT22;15858;48.338;11.078;2023-03-19T07:59:01;8.90;99.90
28677;DHT22;15858;48.338;11.078;2023-03-19T08:01:28;9.00;99.90
28677;DHT22;15858;48.338;11.078;2023-03-19T08:03:54;9.00;99.90
28677;DHT22;15858;48.338;11.078;2023-03-19T08:06:21;9.00;99.90
28677;DHT22;15858;48.338;11.078;2023-03-19T08:08:47;9.10;99.90
28677;DHT22;15858;48.338;11.078;2023-03-19T08:11:14;9.00;99.90
28677;DHT22;15858;48.338;11.078;2023-03-19T08:13:41;9.00;99.90
28677;DHT22;15858;48.338;11.078;2023-03-19T08:16:08;9.00;99.90
28677;DHT22;15858;48.338;11.078;2023-03-19T08:18:35;9.10;99.90
28677;DHT22;15858;48.338;11.078;2023-03-19T08:21:02;9.10;99.90
28677;DHT22;15858;48.338;11.078;2023-03-19T08:23:29;9.10;99.90
28677;DHT22;15858;48.338;11.078;2023-03-19T08:25:55;9.20;99.90
28677;DHT22;15858;48.338;11.078;2023-03-19T08:28:22;9.10;99.90
28677;DHT22;15858;48.338;11.078;2023-03-19T08:30:49;9.20;99.90
28677;DHT22;15858;48.338;11.078;2023-03-19T08:33:16;9.20;99.90
28677;DHT22;15858;48.338;11.078;2023-03-19T08:35:43;9.30;99.90
28677;DHT22;15858;48.338;11.078;2023-03-19T08:38:09;9.40;99.90
28677;DHT22;15858;48.338;11.078;2023-03-19T08:40:36;9.40;99.90
28677;DHT22;15858;48.338;11.078;2023-03-19T08:43:03;9.50;99.90
28677;DHT22;15858;48.338;11.078;2023-03-19T08:45:29;9.50;99.90
28677;DHT22;15858;48.338;11.078;2023-03-19T08:47:56;9.60;99.90
28677;DHT22;15858;48.338;11.078;2023-03-19T08:50:22;9.70;99.90
28677;DHT22;15858;48.338;11.078;2023-03-19T08:52:49;9.60;99.90
28677;DHT22;15858;48.338;11.078;2023-03-19T08:55:16;9.60;99.90
28677;DHT22;15858;48.338;11.078;2023-03-19T08:57:42;9.60;99.90
28677;DHT22;15858;48.338;11.078;2023-03-19T09:00:09;9.60;99.90
28677;DHT22;15858;48.338;11.078;2023-03-19T09:02:36;9.60;99.90
28677;DHT22;15858;48.338;11.078;2023-03-19T09:05:03;9.70;99.90
28677;DHT22;15858;48.338;11.078;2023-03-19T09:07:30;9.70;99.90
28677;DHT22;15858;48.338;11.078;2023-03-19T09:09:56;9.70;99.90
28677;DHT22;15858;48.338;11.078;2023-03-19T09:12:23;9.80;99.90
28677;DHT22;15858;48.338;11.078;2023-03-19T09:14:49;9.80;99.90
28677;DHT22;15858;48.338;11.078;2023-03-19T09:17:16;9.80;99.90
28677;DHT22;15858;48.338;11.078;2023-03-19T09:19:43;9.90;99.90
28677;DHT22;15858;48.338;11.078;2023-03-19T09:22:09;9.90;99.90
28677;DHT22;15858;48.338;11.078;2023-03-19T09:24:36;9.90;99.90
28677;DHT22;15858;48.338;11.078;2023-03-19T09:27:06;9.90;99.90
28677;DHT22;15858;48.338;11.078;2023-03-19T09:29:32;10.00;99.90
28677;DHT22;15858;48.338;11.078;2023-03-19T09:31:59;10.00;99.90
28677;DHT22;15858;48.338;11.078;2023-03-19T09:34:26;10.10;99.90
28677;DHT22;15858;48.338;11.078;2023-03-19T09:36:52;10.10;99.90
28677;DHT22;15858;48.338;11.078;2023-03-19T09:39:19;10.30;99.90
28677;DHT22;15858;48.338;11.078;2023-03-19T09:44:36;10.40;99.90
28677;DHT22;15858;48.338;11.078;2023-03-19T09:49:49;10.50;99.90
28677;DHT22;15858;48.338;11.078;2023-03-19T09:55:19;10.60;99.90
28677;DHT22;15858;48.338;11.078;2023-03-19T09:57:55;10.60;99.90
28677;DHT22;15858;48.338;11.078;2023-03-19T10:00:25;10.80;99.90
28677;DHT22;15858;48.338;11.078;2023-03-19T10:09:00;11.20;99.90
28677;DHT22;15858;48.338;11.078;2023-03-19T10:14:45;11.30;99.90
28677;DHT22;15858;48.338;11.078;2023-03-19T10:17:18;11.40;99.90
28677;DHT22;15858;48.338;11.078;2023-03-19T10:19:50;11.40;99.90
28677;DHT22;15858;48.338;11.078;2023-03-19T10:22:23;11.50;99.90
28677;DHT22;15858;48.338;11.078;2023-03-19T10:24:52;11.60;99.90
28677;DHT22;15858;48.338;11.078;2023-03-19T10:27:21;11.70;99.90
28677;DHT22;15858;48.338;11.078;2023-03-19T10:29:48;11.80;99.90
28677;DHT22;15858;48.338;11.078;2023-03-19T10:32:26;11.90;99.90
28677;DHT22;15858;48.338;11.078;2023-03-19T10:34:56;11.90;99.90
28677;DHT22;15858;48.338;11.078;2023-03-19T10:37:26;12.10;99.90
28677;DHT22;15858;48.338;11.078;2023-03-19T10:39:58;12.00;99.90
28677;DHT22;15858;48.338;11.078;2023-03-19T10:45:45;12.20;99.90
28677;DHT22;15858;48.338;11.078;2023-03-19T10:48:16;12.30;99.90
28677;DHT22;15858;48.338;11.078;2023-03-19T10:50:59;12.30;99.90
28677;DHT22;15858;48.338;11.078;2023-03-19T10:53:34;12.50;99.90
28677;DHT22;15858;48.338;11.078;2023-03-19T10:56:09;12.70;99.90
28677;DHT22;15858;48.338;11.078;2023-03-19T10:59:05;12.80;99.90
28677;DHT22;15858;48.338;11.078;2023-03-19T11:01:34;13.10;99.90
28677;DHT22;15858;48.338;11.078;2023-03-19T11:04:10;13.10;99.90
28677;DHT22;15858;48.338;11.078;2023-03-19T11:06:37;13.20;99.90
28677;DHT22;15858;48.338;11.078;2023-03-19T11:11:46;12.90;99.90
28677;DHT22;15858;48.338;11.078;2023-03-19T11:14:25;12.90;99.90
28677;DHT22;15858;48.338;11.078;2023-03-19T11:19:39;13.00;99.90
28677;DHT22;15858;48.338;11.078;2023-03-19T11:22:29;12.90;99.90
28677;DHT22;15858;48.338;11.078;2023-03-19T11:24:59;12.80;99.90
28677;DHT22;15858;48.338;11.078;2023-03-19T11:27:29;12.80;99.90
28677;DHT22;15858;48.338;11.078;2023-03-19T11:29:56;12.80;99.90
28677;DHT22;15858;48.338;11.078;2023-03-19T11:36:09;12.90;99.90
28677;DHT22;15858;48.338;11.078;2023-03-19T11:42:03;12.90;99.90
28677;DHT22;15858;48.338;11.078;2023-03-19T11:47:06;12.90;99.90
28677;DHT22;15858;48.338;11.078;2023-03-19T11:50:01;12.90;99.90
28677;DHT22;15858;48.338;11.078;2023-03-19T11:52:34;13.00;99.90
28677;DHT22;15858;48.338;11.078;2023-03-19T11:55:45;13.00;99.90
28677;DHT22;15858;48.338;11.078;2023-03-19T12:01:29;13.00;99.90
28677;DHT22;15858;48.338;11.078;2023-03-19T12:07:04;13.10;99.90
28677;DHT22;15858;48.338;11.078;2023-03-19T12:12:29;13.40;99.90
28677;DHT22;15858;48.338;11.078;2023-03-19T12:20:31;13.70;99.90
28677;DHT22;15858;48.338;11.078;2023-03-19T12:30:41;14.30;99.90
28677;DHT22;15858;48.338;11.078;2023-03-19T12:35:58;14.50;99.90
28677;DHT22;15858;48.338;11.078;2023-03-19T12:41:06;14.30;99.90
28677;DHT22;15858;48.338;11.078;2023-03-19T12:46:16;14.50;99.90
28677;DHT22;15858;48.338;11.078;2023-03-19T12:51:18;15.20;99.90
28677;DHT22;15858;48.338;11.078;2023-03-19T12:54:00;15.40;99.90
28677;DHT22;15858;48.338;11.078;2023-03-19T12:56:31;15.50;99.90
28677;DHT22;15858;48.338;11.078;2023-03-19T12:59:32;15.70;99.90
28677;DHT22;15858;48.338;11.078;2023-03-19T13:02:19;15.40;99.90
28677;DHT22;15858;48.338;11.078;2023-03-19T13:04:59;15.80;99.90
28677;DHT22;15858;48.338;11.078;2023-03-19T13:07:43;15.90;99.90
28677;DHT22;15858;48.338;11.078;2023-03-19T13:10:17;16.30;99.90
28677;DHT22;15858;48.338;11.078;2023-03-19T13:12:45;16.50;99.90
28677;DHT22;15858;48.338;11.078;2023-03-19T13:15:26;16.40;99.90
28677;DHT22;15858;48.338;11.078;2023-03-19T13:23:32;16.30;99.90
28677;DHT22;15858;48.338;11.078;2023-03-19T13:26:03;16.60;99.90
28677;DHT22;15858;48.338;11.078;2023-03-19T13:28:34;16.50;99.90
28677;DHT22;15858;48.338;11.078;2023-03-19T13:31:07;16.50;99.90
28677;DHT22;15858;48.338;11.078;2023-03-19T13:33:52;16.60;99.90
28677;DHT22;15858;48.338;11.078;2023-03-19T13:36:19;16.60;99.90
28677;DHT22;15858;48.338;11.078;2023-03-19T13:38:48;16.60;99.90
28677;DHT22;15858;48.338;11.078;2023-03-19T13:46:48;16.10;99.90
28677;DHT22;15858;48.338;11.078;2023-03-19T13:54:39;15.70;99.90
28677;DHT22;15858;48.338;11.078;2023-03-19T13:57:17;15.50;99.90
28677;DHT22;15858;48.338;11.078;2023-03-19T13:59:46;15.30;99.90
28677;DHT22;15858;48.338;11.078;2023-03-19T14:04:51;15.30;99.90
28677;DHT22;15858;48.338;11.078;2023-03-19T14:07:27;15.30;99.90
28677;DHT22;15858;48.338;11.078;2023-03-19T14:12:29;15.30;99.90
28677;DHT22;15858;48.338;11.078;2023-03-19T14:15:20;15.30;99.90
28677;DHT22;15858;48.338;11.078;2023-03-19T14:17:54;15.30;99.90
28677;DHT22;15858;48.338;11.078;2023-03-19T14:20:28;15.50;99.90
28677;DHT22;15858;48.338;11.078;2023-03-19T14:31:24;15.40;99.90
28677;DHT22;15858;48.338;11.078;2023-03-19T14:34:14;15.50;99.90
28677;DHT22;15858;48.338;11.078;2023-03-19T14:37:03;15.40;99.90
28677;DHT22;15858;48.338;11.078;2023-03-19T14:39:39;15.40;99.90
28677;DHT22;15858;48.338;11.078;2023-03-19T14:50:41;15.50;99.90
28677;DHT22;15858;48.338;11.078;2023-03-19T14:53:36;15.40;99.90
28677;DHT22;15858;48.338;11.078;2023-03-19T14:56:13;15.50;99.90
28677;DHT22;15858;48.338;11.078;2023-03-19T14:58:48;15.50;99.90
28677;DHT22;15858;48.338;11.078;2023-03-19T15:01:15;15.70;99.90
28677;DHT22;15858;48.338;11.078;2023-03-19T15:03:42;15.50;99.90
28677;DHT22;15858;48.338;11.078;2023-03-19T15:06:12;15.30;99.90
28677;DHT22;15858;48.338;11.078;2023-03-19T15:08:40;15.20;99.90
28677;DHT22;15858;48.338;11.078;2023-03-19T15:19:24;15.40;99.90
28677;DHT22;15858;48.338;11.078;2023-03-19T15:22:10;15.30;99.90
28677;DHT22;15858;48.338;11.078;2023-03-19T15:24:38;15.40;99.90
28677;DHT22;15858;48.338;11.078;2023-03-19T15:27:34;15.50;99.90
28677;DHT22;15858;48.338;11.078;2023-03-19T15:30:01;15.50;99.90
28677;DHT22;15858;48.338;11.078;2023-03-19T15:32:41;15.50;99.90
28677;DHT22;15858;48.338;11.078;2023-03-19T15:35:35;15.60;99.90
28677;DHT22;15858;48.338;11.078;2023-03-19T15:38:06;15.30;99.90
28677;DHT22;15858;48.338;11.078;2023-03-19T15:40:34;15.20;99.90
28677;DHT22;15858;48.338;11.078;2023-03-19T15:43:02;15.10;99.90
28677;DHT22;15858;48.338;11.078;2023-03-19T15:45:30;15.00;99.90
28677;DHT22;15858;48.338;11.078;2023-03-19T15:50:43;15.10;99.90
28677;DHT22;15858;48.338;11.078;2023-03-19T15:53:15;15.10;99.90
28677;DHT22;15858;48.338;11.078;2023-03-19T15:55:43;15.20;99.90
28677;DHT22;15858;48.338;11.078;2023-03-19T15:58:20;15.20;99.90
28677;DHT22;15858;48.338;11.078;2023-03-19T16:00:47;15.10;99.90
28677;DHT22;15858;48.338;11.078;2023-03-19T16:03:17;15.10;99.90
28677;DHT22;15858;48.338;11.078;2023-03-19T16:05:44;15.00;99.90
28677;DHT22;15858;48.338;11.078;2023-03-19T16:08:24;15.00;99.90
28677;DHT22;15858;48.338;11.078;2023-03-19T16:10:51;15.20;99.90
28677;DHT22;15858;48.338;11.078;2023-03-19T16:13:38;15.40;99.90
28677;DHT22;15858;48.338;11.078;2023-03-19T16:16:18;15.30;99.90
28677;DHT22;15858;48.338;11.078;2023-03-19T16:18:50;15.30;99.90
28677;DHT22;15858;48.338;11.078;2023-03-19T16:24:31;15.10;99.90
28677;DHT22;15858;48.338;11.078;2023-03-19T16:27:02;15.00;99.90
28677;DHT22;15858;48.338;11.078;2023-03-19T16:29:36;14.90;99.90
28677;DHT22;15858;48.338;11.078;2023-03-19T16:34:40;14.90;99.90
28677;DHT22;15858;48.338;11.078;2023-03-19T16:39:55;14.70;99.90
28677;DHT22;15858;48.338;11.078;2023-03-19T16:44:54;14.50;99.90
28677;DHT22;15858;48.338;11.078;2023-03-19T16:47:21;14.40;99.90
28677;DHT22;15858;48.338;11.078;2023-03-19T16:49:48;14.40;99.90
28677;DHT22;15858;48.338;11.078;2023-03-19T16:52:19;14.30;99.90
28677;DHT22;15858;48.338;11.078;2023-03-19T16:54:48;14.30;99.90
28677;DHT22;15858;48.338;11.078;2023-03-19T16:57:16;14.10;99.90
28677;DHT22;15858;48.338;11.078;2023-03-19T16:59:44;14.00;99.90
28677;DHT22;15858;48.338;11.078;2023-03-19T17:02:16;14.00;99.90
28677;DHT22;15858;48.338;11.078;2023-03-19T17:04:43;13.80;99.90
28677;DHT22;15858;48.338;11.078;2023-03-19T17:07:11;13.70;99.90
28677;DHT22;15858;48.338;11.078;2023-03-19T17:09:38;13.70;99.90
28677;DHT22;15858;48.338;11.078;2023-03-19T17:12:06;13.60;99.90
28677;DHT22;15858;48.338;11.078;2023-03-19T17:14:34;13.50;99.90
28677;DHT22;15858;48.338;11.078;2023-03-19T17:17:00;13.50;99.90
28677;DHT22;15858;48.338;11.078;2023-03-19T17:19:35;13.50;99.90
28677;DHT22;15858;48.338;11.078;2023-03-19T17:22:02;13.40;99.90
28677;DHT22;15858;48.338;11.078;2023-03-19T17:24:33;13.30;99.90
28677;DHT22;15858;48.338;11.078;2023-03-19T17:27:01;13.20;99.90
28677;DHT22;15858;48.338;11.078;2023-03-19T17:29:29;13.10;99.90
28677;DHT22;15858;48.338;11.078;2023-03-19T17:31:58;13.10;99.90
28677;DHT22;15858;48.338;11.078;2023-03-19T17:34:26;13.00;99.90
28677;DHT22;15858;48.338;11.078;2023-03-19T17:37:03;13.00;99.90
28677;DHT22;15858;48.338;11.078;2023-03-19T17:39:29;12.90;99.90
28677;DHT22;15858;48.338;11.078;2023-03-19T17:41:56;12.90;99.90
28677;DHT22;15858;48.338;11.078;2023-03-19T17:44:23;12.80;99.90
28677;DHT22;15858;48.338;11.078;2023-03-19T17:46:51;12.80;99.90
28677;DHT22;15858;48.338;11.078;2023-03-19T17:49:25;12.80;99.90
28677;DHT22;15858;48.338;11.078;2023-03-19T17:51:52;12.70;99.90
28677;DHT22;15858;48.338;11.078;2023-03-19T17:54:18;12.70;99.90
28677;DHT22;15858;48.338;11.078;2023-03-19T17:56:45;12.70;99.90
28677;DHT22;15858;48.338;11.078;2023-03-19T17:59:12;12.40;99.90
28677;DHT22;15858;48.338;11.078;2023-03-19T18:01:40;12.40;99.90